Detall de PIREP

Printer-friendly versionPDF version

[2010/05/22 23:12:00]
Flight IATA:CT1001
Pilot Number:026
Company ICAO:CAT
Aircraft Type:F50/A
PAX:47
Departing Airport: LEIB
Destination Airport: LEPA
Alternate Airport:LEMH
Online: VATSIM
Route:MJV
Flight Level:FL120
No Slew and time accel
No pause
Crash detect
Detect pilot in Cockpit between each 30 and 45 minutes
23:12 Zero fuel Weight: 39583 Lbs, Fuel Weight: 1499 Lbs
23:12 VATSIM:LEIB 222330Z VRB01KT CAVOK 16/09 Q1018 NOSIG
23:12 VATSIM:LEPA 222330Z 07002KT CAVOK 14/12 Q1017 NOSIG
23:12 VOICE CATALONIAN / MEDITERRANEAN ODYSSEY
23:16 Parking Brakes off
23:21 Take-off
23:21 Take off Weight: 40991 Lbs
23:21 Wind: 036º @ 001 Knots Heading: 059º
23:21 POS N38º 52´ 23´´ E001º 22´ 25´´
23:21 Gear Up: 115 Knots
23:21 Flaps:3 at 115 Knots
23:22 Flaps:2 at 104 Knots
23:23 Flaps:1 at 110 Knots
23:23 Flaps:0 at 129 Knots
23:29 TOC
23:29 Fuel Weight: 1111 Lb
23:36
Wind:020º@001 Knots Heading: 041º Ground Speed: 256 Knots Altitude 12073 ft
23:36 TOD
23:36 Fuel Weight: 891 Lb
23:43 Gear Down: 194 Knots
23:45 Flaps:1 at 118 Knots
23:46 Flaps:2 at 126 Knots
23:46 Flaps:3 at 120 Knots
23:47 Flaps:4 at 115 Knots
23:47 Flaps:5 at 109 Knots
23:47 TouchDown:Rate -185 ft/min Speed: 91 Knots
23:48 VATSIM:LEPA 230000Z 00000KT CAVOK 13/11 Q1017 NOSIG
23:48 Land
23:48 Wind:026º@000 Knots
23:48 Heading: 059º
23:48 Flight Duration: 00:27
23:48 Landing Weight: 40332 Lbs
23:48 POS N39º 33´ 07´´ E002º 43´ 15´´
23:52 Parking brakes on
23:52 Block to Block Duration: 00:36
23:52 Final Fuel: 705 Lbls
23:52 Spent Fuel: 793 Lbls
23:52 Flight Length: 82 NM
23:52 TOD Land Length: 36 NM

Exportar CSV

Powered by Drupal - Modified by Danger4k